createdAt,value
2019-05-07T00:02:26.153Z,1.50
2019-05-07T00:04:54.743Z,1.37
2019-05-07T00:07:23.195Z,1.40
2019-05-07T00:09:52.591Z,1.90
2019-05-07T00:12:23.071Z,1.60
2019-05-07T00:15:00.543Z,1.43
2019-05-07T00:17:22.881Z,1.60
2019-05-07T00:19:52.596Z,2.07
2019-05-07T00:22:22.745Z,1.50
2019-05-07T00:24:52.159Z,1.67
2019-05-07T00:27:22.577Z,2.10
2019-05-07T00:29:52.073Z,1.90
2019-05-07T00:32:22.183Z,1.60
2019-05-07T00:35:07.486Z,1.70
2019-05-07T00:37:40.477Z,1.70
2019-05-07T00:40:18.296Z,1.90
2019-05-07T00:42:48.395Z,1.77
2019-05-07T00:45:27.403Z,1.77
2019-05-07T00:47:55.859Z,1.67
2019-05-07T00:50:25.947Z,1.70
2019-05-07T00:52:54.482Z,1.77
2019-05-07T00:55:23.007Z,1.97
2019-05-07T00:57:52.611Z,2.37
2019-05-07T01:00:22.348Z,1.63
2019-05-07T01:02:52.499Z,2.20
2019-05-07T01:05:23.124Z,2.30
2019-05-07T01:07:52.918Z,2.30
2019-05-07T01:10:22.245Z,2.20
2019-05-07T01:12:52.975Z,1.90
2019-05-07T01:15:28.773Z,1.93
2019-05-07T01:17:52.033Z,1.77
2019-05-07T01:20:22.122Z,1.93
2019-05-07T01:22:54.420Z,1.63
2019-05-07T01:25:22.048Z,2.00
2019-05-07T01:27:50.755Z,1.60
2019-05-07T01:30:19.621Z,1.80
2019-05-07T01:32:49.743Z,1.70
2019-05-07T01:35:25.663Z,2.00
2019-05-07T01:37:54.111Z,1.90
2019-05-07T01:40:22.871Z,2.37
2019-05-07T01:42:53.002Z,2.13
2019-05-07T01:45:22.453Z,2.07
2019-05-07T01:47:53.123Z,1.90
2019-05-07T01:50:22.748Z,2.43
2019-05-07T01:52:52.250Z,2.13
2019-05-07T01:55:22.586Z,2.10
2019-05-07T01:57:52.266Z,1.93
2019-05-07T02:00:22.422Z,2.30
2019-05-07T02:02:58.458Z,2.30
2019-05-07T02:05:34.363Z,2.07
2019-05-07T02:08:04.531Z,1.77
2019-05-07T02:10:37.495Z,2.30
2019-05-07T02:13:06.016Z,2.40
2019-05-07T02:15:34.547Z,2.30
2019-05-07T02:18:03.071Z,2.13
2019-05-07T02:20:32.212Z,2.00
2019-05-07T02:23:02.738Z,1.83
2019-05-07T02:25:32.750Z,1.80
2019-05-07T02:28:02.227Z,1.80
2019-05-07T02:30:34.551Z,1.87
2019-05-07T02:33:03.741Z,2.40
2019-05-07T02:35:33.260Z,2.20
2019-05-07T02:38:03.352Z,2.00
2019-05-07T02:40:34.112Z,2.20
2019-05-07T02:43:03.131Z,2.30
2019-05-07T02:45:33.546Z,2.63
2019-05-07T02:48:03.461Z,2.10
2019-05-07T02:50:39.903Z,2.60
2019-05-07T02:53:28.087Z,2.10
2019-05-07T02:55:58.180Z,2.17
2019-05-07T02:58:26.635Z,3.00
2019-05-07T03:00:55.494Z,2.60
2019-05-07T03:03:24.838Z,2.23
2019-05-07T03:05:53.907Z,2.90
2019-05-07T03:08:27.009Z,2.53
2019-05-07T03:10:52.937Z,2.37
2019-05-07T03:13:23.599Z,2.43
2019-05-07T03:15:54.100Z,2.57
2019-05-07T03:18:23.434Z,2.63
2019-05-07T03:20:59.669Z,2.30
2019-05-07T03:23:34.108Z,2.70
2019-05-07T03:26:07.401Z,3.43
2019-05-07T03:28:55.662Z,2.23
2019-05-07T03:31:36.453Z,2.30
2019-05-07T03:34:06.964Z,2.53
2019-05-07T03:36:38.693Z,2.60
2019-05-07T03:39:07.355Z,2.57
2019-05-07T03:41:36.015Z,2.37
2019-05-07T03:44:15.090Z,2.70
2019-05-07T03:46:56.735Z,3.10
2019-05-07T03:49:33.853Z,2.40
2019-05-07T03:52:03.876Z,2.20
2019-05-07T03:54:35.896Z,2.80
2019-05-07T03:57:10.764Z,2.50
2019-05-07T03:59:34.634Z,2.70
2019-05-07T04:02:03.481Z,3.07
2019-05-07T04:04:33.253Z,2.70
2019-05-07T04:07:03.343Z,3.10
2019-05-07T04:09:33.352Z,2.53
2019-05-07T04:12:03.945Z,2.97
2019-05-07T04:14:34.384Z,2.90
2019-05-07T04:17:14.191Z,3.13
2019-05-07T04:19:32.955Z,2.73
2019-05-07T04:22:04.357Z,2.80
2019-05-07T04:24:33.543Z,2.87
2019-05-07T04:27:15.774Z,2.70
2019-05-07T04:29:44.303Z,2.50
2019-05-07T04:32:14.419Z,3.20
2019-05-07T04:35:03.740Z,2.70
2019-05-07T04:37:33.232Z,2.53
2019-05-07T04:40:03.139Z,2.63
2019-05-07T04:42:33.294Z,3.60
2019-05-07T04:45:04.229Z,3.40
2019-05-07T04:47:42.131Z,2.33
2019-05-07T04:50:03.810Z,2.70
2019-05-07T04:52:36.824Z,2.90
2019-05-07T04:55:07.075Z,2.93
2019-05-07T04:57:35.586Z,2.80
2019-05-07T05:00:07.356Z,2.70
2019-05-07T05:02:46.525Z,2.83
2019-05-07T05:05:16.248Z,2.20
2019-05-07T05:07:44.694Z,2.70
2019-05-07T05:10:13.686Z,2.73
2019-05-07T05:12:42.981Z,2.37
2019-05-07T05:15:12.637Z,2.40
2019-05-07T05:17:50.008Z,2.33
2019-05-07T05:20:13.129Z,2.60
2019-05-07T05:22:53.264Z,2.37
2019-05-07T05:25:23.491Z,2.67
2019-05-07T05:27:52.446Z,2.13
2019-05-07T05:30:38.143Z,2.23
2019-05-07T05:33:06.604Z,2.37
2019-05-07T05:35:36.287Z,2.43
2019-05-07T05:38:05.492Z,4.70
2019-05-07T05:40:34.075Z,6.23
2019-05-07T05:43:07.163Z,5.03
2019-05-07T05:45:46.587Z,3.63
2019-05-07T05:48:15.039Z,4.53
2019-05-07T05:50:47.939Z,4.53
2019-05-07T05:53:34.067Z,3.87
2019-05-07T05:56:04.143Z,5.53
2019-05-07T05:58:36.920Z,5.00
2019-05-07T06:01:18.942Z,6.53
2019-05-07T06:03:49.047Z,5.80
2019-05-07T06:06:22.024Z,4.93
2019-05-07T06:08:54.628Z,5.60
2019-05-07T06:11:34.091Z,4.97
2019-05-07T06:14:06.960Z,5.37
2019-05-07T06:16:37.125Z,3.60
2019-05-07T06:19:07.275Z,4.00
2019-05-07T06:21:54.024Z,2.97
2019-05-07T06:24:42.737Z,3.80
2019-05-07T06:27:12.245Z,3.37
2019-05-07T06:29:42.580Z,3.03
2019-05-07T06:32:12.916Z,3.10
2019-05-07T06:34:44.224Z,3.13
2019-05-07T06:37:11.917Z,2.97
2019-05-07T06:39:52.860Z,3.33
2019-05-07T06:42:34.735Z,3.53
2019-05-07T06:45:22.826Z,2.90
2019-05-07T06:47:52.047Z,2.40
2019-05-07T06:50:22.067Z,2.67
2019-05-07T06:52:51.933Z,2.90
2019-05-07T06:55:22.643Z,2.90
2019-05-07T06:57:52.937Z,3.13
2019-05-07T07:00:24.243Z,2.93
2019-05-07T07:03:02.049Z,2.83
2019-05-07T07:05:34.908Z,2.40
2019-05-07T07:08:05.508Z,2.67
2019-05-07T07:10:52.348Z,2.60
2019-05-07T07:13:22.946Z,3.13
2019-05-07T07:15:52.161Z,3.27
2019-05-07T07:18:22.921Z,2.50
2019-05-07T07:20:52.415Z,2.40
2019-05-07T07:23:22.636Z,2.83
2019-05-07T07:25:52.244Z,2.40
2019-05-07T07:28:21.886Z,2.93
2019-05-07T07:30:58.092Z,2.77
2019-05-07T07:33:43.689Z,2.53
2019-05-07T07:36:12.356Z,3.37
2019-05-07T07:38:42.068Z,2.57
2019-05-07T07:41:12.855Z,1.97
2019-05-07T07:43:41.945Z,3.20
2019-05-07T07:46:12.827Z,2.90
2019-05-07T07:48:43.326Z,3.60
2019-05-07T07:51:13.584Z,3.57
2019-05-07T07:53:42.471Z,3.10
2019-05-07T07:56:29.359Z,2.83
2019-05-07T07:59:12.645Z,2.83
2019-05-07T08:01:45.612Z,2.97
2019-05-07T08:04:14.492Z,2.60
2019-05-07T08:06:43.015Z,3.17
2019-05-07T08:09:12.916Z,2.80
2019-05-07T08:11:42.505Z,2.60
2019-05-07T08:14:12.698Z,2.80
2019-05-07T08:16:42.952Z,2.20
2019-05-07T08:19:21.576Z,3.13
2019-05-07T08:21:42.278Z,2.57
2019-05-07T08:24:12.200Z,2.87
2019-05-07T08:26:42.890Z,2.70
2019-05-07T08:29:11.937Z,3.23
2019-05-07T08:31:51.808Z,2.63
2019-05-07T08:34:22.076Z,2.90
2019-05-07T08:36:52.599Z,2.53
2019-05-07T08:39:22.343Z,3.03
2019-05-07T08:41:52.715Z,2.63
2019-05-07T08:44:28.714Z,2.43
2019-05-07T08:47:12.165Z,2.97
2019-05-07T08:49:43.305Z,3.50
2019-05-07T08:52:12.267Z,2.80
2019-05-07T08:54:42.652Z,3.00
2019-05-07T08:57:12.117Z,3.20
2019-05-07T08:59:43.692Z,2.73
2019-05-07T09:02:12.602Z,3.60
2019-05-07T09:04:41.802Z,2.50
2019-05-07T09:07:12.792Z,3.30
2019-05-07T09:09:42.732Z,2.83
2019-05-07T09:12:12.360Z,2.60
2019-05-07T09:14:42.571Z,2.87
2019-05-07T09:17:12.764Z,2.90
2019-05-07T09:19:50.820Z,3.10
2019-05-07T09:22:12.711Z,3.20
2019-05-07T09:24:42.376Z,2.30
2019-05-07T09:27:12.927Z,2.70
2019-05-07T09:29:48.871Z,2.50
2019-05-07T09:32:24.804Z,2.40
2019-05-07T09:34:54.979Z,2.50
2019-05-07T09:37:25.139Z,2.63
2019-05-07T09:39:53.668Z,2.63
2019-05-07T09:42:22.649Z,2.37
2019-05-07T09:44:52.918Z,2.93
2019-05-07T09:47:22.022Z,2.97
2019-05-07T09:50:02.047Z,2.87
2019-05-07T09:52:22.818Z,2.70
2019-05-07T09:54:52.284Z,3.20
2019-05-07T09:57:28.320Z,3.30
2019-05-07T09:59:53.014Z,2.77
2019-05-07T10:02:22.668Z,2.90
2019-05-07T10:04:52.621Z,2.60
2019-05-07T10:07:22.432Z,2.80
2019-05-07T10:09:52.310Z,2.70
2019-05-07T10:12:34.586Z,2.93
2019-05-07T10:15:03.502Z,2.83
2019-05-07T10:17:36.433Z,2.63
2019-05-07T10:20:18.243Z,2.60
2019-05-07T10:22:38.017Z,2.67
2019-05-07T10:25:06.528Z,2.87
2019-05-07T10:27:35.299Z,2.80
2019-05-07T10:30:04.908Z,2.40
2019-05-07T10:32:33.359Z,2.67
2019-05-07T10:35:02.378Z,2.67
2019-05-07T10:37:31.941Z,2.90
2019-05-07T10:40:03.149Z,2.87
2019-05-07T10:42:32.375Z,2.17
2019-05-07T10:45:04.152Z,2.40
2019-05-07T10:47:37.467Z,2.70
2019-05-07T10:50:14.779Z,3.37
2019-05-07T10:52:43.379Z,2.70
2019-05-07T10:55:12.480Z,2.40
2019-05-07T10:57:42.230Z,2.80
2019-05-07T11:00:14.580Z,2.30
2019-05-07T11:02:43.039Z,2.63
2019-05-07T11:05:12.945Z,2.77
2019-05-07T11:07:42.215Z,2.87
2019-05-07T11:10:12.364Z,2.63
2019-05-07T11:12:42.489Z,2.50
2019-05-07T11:15:12.648Z,2.60
2019-05-07T11:17:48.465Z,2.80
2019-05-07T11:20:17.316Z,2.97
2019-05-07T11:22:45.779Z,2.60
2019-05-07T11:25:14.394Z,2.83
2019-05-07T11:27:42.852Z,2.80
2019-05-07T11:30:12.014Z,2.27
2019-05-07T11:32:42.798Z,2.50
2019-05-07T11:35:14.788Z,2.87
2019-05-07T11:37:44.409Z,2.30
2019-05-07T11:40:14.527Z,2.17
2019-05-07T11:43:02.511Z,2.70
2019-05-07T11:45:32.600Z,2.30
2019-05-07T11:48:01.899Z,2.10
2019-05-07T11:50:42.223Z,2.20
2019-05-07T11:53:15.391Z,3.00
2019-05-07T11:55:43.851Z,2.93
2019-05-07T11:58:12.816Z,2.30
2019-05-07T12:01:03.642Z,2.37
2019-05-07T12:03:32.459Z,2.00
2019-05-07T12:06:02.015Z,2.50
2019-05-07T12:08:40.945Z,2.27
2019-05-07T12:11:02.388Z,1.90
2019-05-07T12:13:32.386Z,2.80
2019-05-07T12:16:03.009Z,2.23
2019-05-07T12:18:32.096Z,2.20
2019-05-07T12:21:03.778Z,2.23
2019-05-07T12:23:33.025Z,2.33
2019-05-07T12:26:02.295Z,2.10
2019-05-07T12:28:32.810Z,1.90
2019-05-07T12:31:02.952Z,2.30
2019-05-07T12:33:49.471Z,1.83
2019-05-07T12:36:18.071Z,1.80
2019-05-07T12:38:46.612Z,2.00
2019-05-07T12:41:33.261Z,2.10
2019-05-07T12:44:03.357Z,2.03
2019-05-07T12:46:33.402Z,1.83
2019-05-07T12:49:03.093Z,2.50
2019-05-07T12:51:37.500Z,1.77
2019-05-07T12:54:08.308Z,2.40
2019-05-07T12:56:36.903Z,2.20
2019-05-07T12:59:05.420Z,2.50
2019-05-07T13:01:42.217Z,2.47
2019-05-07T13:04:12.427Z,2.57
2019-05-07T13:06:58.932Z,2.03
2019-05-07T13:09:27.376Z,2.40
2019-05-07T13:11:55.844Z,2.57
2019-05-07T13:14:24.291Z,1.80
2019-05-07T13:16:52.747Z,1.93
2019-05-07T13:19:22.578Z,2.30
2019-05-07T13:21:51.450Z,2.20
2019-05-07T13:24:19.911Z,2.10
2019-05-07T13:26:48.354Z,1.90
2019-05-07T13:29:16.829Z,1.87
2019-05-07T13:31:45.679Z,3.60
2019-05-07T13:34:14.663Z,6.93
2019-05-07T13:36:45.047Z,2.83
2019-05-07T13:39:15.344Z,2.13
2019-05-07T13:41:45.587Z,2.00
2019-05-07T13:44:22.898Z,7.60
2019-05-07T13:46:54.483Z,2.23
2019-05-07T13:49:23.370Z,2.10
2019-05-07T13:52:03.126Z,2.30
2019-05-07T13:54:22.245Z,2.00
2019-05-07T13:56:52.553Z,2.33
2019-05-07T13:59:22.299Z,1.90
2019-05-07T14:01:58.478Z,2.20
2019-05-07T14:04:27.067Z,2.13
2019-05-07T14:06:57.304Z,2.30
2019-05-07T14:09:25.906Z,1.80
2019-05-07T14:11:54.423Z,2.37
2019-05-07T14:14:23.020Z,2.30
2019-05-07T14:16:53.016Z,2.03
2019-05-07T14:19:22.502Z,2.00
2019-05-07T14:21:52.566Z,1.87
2019-05-07T14:24:22.348Z,2.57
2019-05-07T14:26:52.868Z,2.43
2019-05-07T14:29:24.380Z,2.00
2019-05-07T14:32:02.149Z,2.00
2019-05-07T14:34:34.669Z,2.10
2019-05-07T14:37:04.760Z,1.97
2019-05-07T14:39:33.427Z,1.90
2019-05-07T14:42:03.511Z,2.13
2019-05-07T14:44:47.769Z,2.10
2019-05-07T14:47:22.056Z,1.87
2019-05-07T14:49:52.673Z,2.47
2019-05-07T14:52:30.162Z,1.87
2019-05-07T14:54:50.951Z,2.30
2019-05-07T14:57:19.419Z,2.80
2019-05-07T14:59:47.950Z,1.93
2019-05-07T15:02:16.551Z,2.07
2019-05-07T15:04:45.064Z,2.20
2019-05-07T15:07:13.900Z,3.97
2019-05-07T15:09:42.629Z,3.80
2019-05-07T15:12:14.446Z,2.57
2019-05-07T15:14:42.161Z,2.40
2019-05-07T15:17:15.440Z,1.80
2019-05-07T15:19:43.902Z,1.97
2019-05-07T15:22:45.534Z,1.90
2019-05-07T15:25:03.134Z,3.63
2019-05-07T15:27:32.324Z,2.50
2019-05-07T15:30:02.366Z,2.37
2019-05-07T15:32:32.297Z,2.00
2019-05-07T15:35:02.210Z,2.10
2019-05-07T15:37:32.180Z,2.30
2019-05-07T15:40:02.433Z,1.93
2019-05-07T15:42:32.807Z,1.70
2019-05-07T15:45:02.293Z,1.80
2019-05-07T15:47:42.090Z,2.40
2019-05-07T15:50:12.489Z,2.03
2019-05-07T15:52:58.500Z,2.10
2019-05-07T15:55:22.528Z,2.20
2019-05-07T15:57:52.165Z,1.70
2019-05-07T16:00:25.843Z,2.37
2019-05-07T16:02:55.940Z,2.20
2019-05-07T16:05:24.481Z,1.77
2019-05-07T16:07:53.574Z,2.47
2019-05-07T16:10:23.204Z,2.30
2019-05-07T16:12:53.178Z,2.20
2019-05-07T16:15:22.498Z,2.60
2019-05-07T16:18:09.042Z,2.20
2019-05-07T16:20:37.490Z,2.07
2019-05-07T16:23:14.728Z,2.30
2019-05-07T16:25:36.115Z,2.33
2019-05-07T16:28:06.018Z,3.13
2019-05-07T16:30:34.467Z,2.30
2019-05-07T16:33:03.007Z,2.30
2019-05-07T16:35:32.101Z,3.00
2019-05-07T16:38:00.823Z,2.40
2019-05-07T16:40:29.354Z,2.00
2019-05-07T16:42:57.875Z,2.37
2019-05-07T16:45:26.331Z,2.57
2019-05-07T16:47:54.796Z,2.60
2019-05-07T16:50:23.468Z,2.40
2019-05-07T16:52:52.424Z,2.30
2019-05-07T16:55:22.407Z,1.97
2019-05-07T16:58:04.999Z,2.60
2019-05-07T17:00:53.680Z,2.70
2019-05-07T17:03:23.782Z,2.40
2019-05-07T17:05:52.452Z,2.00
2019-05-07T17:08:22.610Z,2.63
2019-05-07T17:10:52.342Z,2.97
2019-05-07T17:13:20.983Z,2.30
2019-05-07T17:15:56.816Z,2.60
2019-05-07T17:18:26.503Z,2.57
2019-05-07T17:20:56.638Z,2.67
2019-05-07T17:23:25.738Z,2.57
2019-05-07T17:25:54.799Z,2.70
2019-05-07T17:28:24.138Z,2.70
2019-05-07T17:30:53.115Z,2.20
2019-05-07T17:33:23.001Z,2.77
2019-05-07T17:35:51.916Z,2.23
2019-05-07T17:38:22.850Z,2.80
2019-05-07T17:40:53.866Z,2.40
2019-05-07T17:43:23.960Z,3.17
2019-05-07T17:45:52.512Z,2.93
2019-05-07T17:48:23.049Z,2.97
2019-05-07T17:51:08.291Z,2.67
2019-05-07T17:53:37.250Z,2.53
2019-05-07T17:56:05.727Z,2.70
2019-05-07T17:58:34.278Z,2.70
2019-05-07T18:01:03.994Z,2.53
2019-05-07T18:03:33.319Z,2.97
2019-05-07T18:06:02.989Z,2.87
2019-05-07T18:08:32.556Z,3.03
2019-05-07T18:11:02.339Z,3.77
2019-05-07T18:13:32.328Z,2.70
2019-05-07T18:16:03.010Z,3.07
2019-05-07T18:18:32.738Z,3.00
2019-05-07T18:21:02.258Z,2.67
2019-05-07T18:23:32.186Z,3.20
2019-05-07T18:26:00.954Z,3.17
2019-05-07T18:28:29.659Z,3.80
2019-05-07T18:30:58.758Z,3.80
2019-05-07T18:33:34.943Z,4.10
2019-05-07T18:36:04.042Z,4.23
2019-05-07T18:38:33.055Z,4.90
2019-05-07T18:41:02.596Z,4.17
2019-05-07T18:43:33.224Z,5.03
2019-05-07T18:46:02.260Z,4.40
2019-05-07T18:48:31.047Z,3.53
2019-05-07T18:50:59.577Z,4.20
2019-05-07T18:53:28.106Z,4.00
2019-05-07T18:55:56.578Z,4.63
2019-05-07T18:58:25.107Z,3.20
2019-05-07T19:01:04.219Z,3.47
2019-05-07T19:03:32.736Z,3.30
2019-05-07T19:06:02.806Z,3.60
2019-05-07T19:08:32.686Z,4.10
2019-05-07T19:11:01.782Z,3.40
2019-05-07T19:13:32.486Z,3.80
2019-05-07T19:16:00.411Z,4.00
2019-05-07T19:18:28.976Z,5.10
2019-05-07T19:20:57.436Z,5.17
2019-05-07T19:23:25.951Z,5.17
2019-05-07T19:25:54.482Z,6.73
2019-05-07T19:28:22.923Z,6.83
2019-05-07T19:30:52.722Z,5.90
2019-05-07T19:33:26.503Z,7.27
2019-05-07T19:35:52.820Z,6.30
2019-05-07T19:38:21.677Z,7.53
2019-05-07T19:40:52.656Z,7.30
2019-05-07T19:43:20.543Z,7.53
2019-05-07T19:45:48.987Z,7.30
2019-05-07T19:48:17.448Z,7.10
2019-05-07T19:50:45.907Z,5.80
2019-05-07T19:53:14.423Z,6.30
2019-05-07T19:56:02.054Z,6.23
2019-05-07T19:58:32.735Z,5.63
2019-05-07T20:01:02.060Z,5.47
2019-05-07T20:03:30.520Z,4.23
2019-05-07T20:05:59.048Z,3.27
2019-05-07T20:08:27.634Z,4.47
2019-05-07T20:11:03.992Z,3.20
2019-05-07T20:13:32.580Z,4.10
2019-05-07T20:16:02.937Z,3.87
2019-05-07T20:18:32.697Z,4.13
2019-05-07T20:21:02.708Z,4.00
2019-05-07T20:23:32.327Z,3.33
2019-05-07T20:26:02.929Z,3.63
2019-05-07T20:28:32.979Z,4.03
2019-05-07T20:31:01.438Z,3.87
2019-05-07T20:33:30.031Z,4.67
2019-05-07T20:35:58.544Z,4.40
2019-05-07T20:38:26.992Z,4.80
2019-05-07T20:40:55.523Z,4.20
2019-05-07T20:43:23.958Z,4.47
2019-05-07T20:45:52.482Z,4.20
2019-05-07T20:48:22.685Z,4.33
2019-05-07T20:50:52.114Z,4.43
2019-05-07T20:53:22.319Z,4.50
2019-05-07T20:56:02.242Z,4.07
2019-05-07T20:58:32.731Z,4.40
2019-05-07T21:01:02.865Z,3.90
2019-05-07T21:03:32.453Z,4.00
2019-05-07T21:06:02.273Z,4.40
2019-05-07T21:08:32.117Z,4.70
2019-05-07T21:11:02.556Z,4.27
2019-05-07T21:13:34.155Z,4.20
2019-05-07T21:16:03.278Z,4.30
2019-05-07T21:18:32.687Z,4.57
2019-05-07T21:21:02.133Z,4.30
2019-05-07T21:23:32.559Z,4.63
2019-05-07T21:26:02.115Z,3.77
2019-05-07T21:28:32.343Z,3.90
2019-05-07T21:31:02.768Z,3.40
2019-05-07T21:33:32.211Z,3.43
2019-05-07T21:36:02.844Z,3.53
2019-05-07T21:38:32.916Z,4.13
2019-05-07T21:41:01.273Z,4.00
2019-05-07T21:43:29.715Z,4.27
2019-05-07T21:45:58.172Z,3.97
2019-05-07T21:48:26.611Z,4.50
2019-05-07T21:50:55.439Z,4.00
2019-05-07T21:53:42.976Z,4.93
2019-05-07T21:56:13.359Z,4.67
2019-05-07T21:59:03.078Z,5.30
2019-05-07T22:01:33.582Z,4.70
2019-05-07T22:04:02.168Z,3.90
2019-05-07T22:06:30.620Z,5.03
2019-05-07T22:08:59.068Z,4.90
2019-05-07T22:11:27.523Z,4.33
2019-05-07T22:13:56.046Z,4.00
2019-05-07T22:16:24.687Z,4.60
2019-05-07T22:18:53.131Z,4.30
2019-05-07T22:21:21.586Z,4.80
2019-05-07T22:23:52.021Z,5.50
2019-05-07T22:26:25.679Z,5.47
2019-05-07T22:28:53.847Z,4.83
2019-05-07T22:31:28.454Z,5.40
2019-05-07T22:34:07.569Z,4.60
2019-05-07T22:36:36.026Z,4.27
2019-05-07T22:39:06.282Z,5.20
2019-05-07T22:41:34.791Z,4.53
2019-05-07T22:44:03.317Z,5.27
2019-05-07T22:46:32.660Z,5.23
2019-05-07T22:49:03.107Z,5.37
2019-05-07T22:51:31.621Z,4.60
2019-05-07T22:54:04.157Z,4.27
2019-05-07T22:56:48.154Z,5.27
2019-05-07T22:59:16.711Z,4.77
2019-05-07T23:01:45.237Z,4.40
2019-05-07T23:04:13.677Z,4.43
2019-05-07T23:06:43.700Z,5.03
2019-05-07T23:09:12.818Z,4.87
2019-05-07T23:11:41.431Z,5.40
2019-05-07T23:14:11.797Z,5.53
2019-05-07T23:16:40.051Z,5.03
2019-05-07T23:19:08.496Z,5.20
2019-05-07T23:21:37.030Z,3.90
2019-05-07T23:24:05.555Z,5.40
2019-05-07T23:26:47.452Z,5.40
2019-05-07T23:29:04.255Z,5.13
2019-05-07T23:31:32.831Z,5.47
2019-05-07T23:34:01.972Z,4.93
2019-05-07T23:36:30.623Z,5.30
2019-05-07T23:38:59.142Z,5.27
2019-05-07T23:41:47.362Z,5.20
2019-05-07T23:44:17.092Z,4.97
2019-05-07T23:46:45.602Z,4.60
2019-05-07T23:49:14.302Z,4.70
2019-05-07T23:51:42.822Z,4.87
2019-05-07T23:54:12.161Z,4.83
2019-05-07T23:56:42.708Z,4.60
2019-05-07T23:59:12.757Z,5.10
